AirNav   Everest Fuels
 
 1036 users online  

7PA0 OPA Heliport
Orwigsburg, Pennsylvania, USA

GOING TO ORWIGSBURG?


FAA INFORMATION EFFECTIVE 18 JUNE 2020

Location

FAA Identifier: 7PA0
Lat/Long: 40-39-03.7000N 076-06-50.8000W
40-39.061667N 076-06.846667W
40.6510278,-76.1141111
(estimated)
Elevation: 670 ft. / 204 m (estimated)
From city: 1 mile SW of ORWIGSBURG, PA
Time zone: UTC -4 (UTC -5 during Standard Time)
Zip code: 17961

Heliport Operations

Heliport use: Private use. Permission required prior to landing
Activation date: 05/2017
Control tower: no
ARTCC: NEW YORK CENTER
FSS: WILLIAMSPORT FLIGHT SERVICE STATION
Attendance: 
Wind indicator: yes
Segmented circle: yes

Heliport Communications

WX AWOS-3 at ZER (12 nm W): 127.575 (570-544-2778)
WX ASOS at RDG (18 nm SE): 127.1 (610-372-9863)
WX AWOS-3PT at 22N (19 nm NE): 119.350 (570-386-3423)

Nearby radio navigation aids

VOR radial/distance  VOR name  Freq  Var
ETXr291/20.0EAST TEXAS VOR/DME110.2009W
RAVr086/22.9RAVINE VORTAC114.6011W
FJCr271/30.3ALLENTOWN VORTAC117.5010W
LRPr023/32.9LANCASTER VOR/DME117.3009W
MIPr141/33.5MILTON VORTAC109.2009W
SEGr111/36.0SELINSGROVE VOR/DME110.4008W
PTWr324/36.1POTTSTOWN VORTAC116.5009W

 
NDB name  Hdg/Dist  Freq  Var  ID
BELLGROVE067/23.832810WBZJ -... --.. .---

Heliport Services

Runway Information

Helipad H1

Dimensions: 40 x 40 ft. / 12 x 12 m
Surface: turf
Traffic pattern: leftleft

Heliport Ownership and Management from official FAA records

Ownership: Privately-owned
Owner: GREGORY J SOLGA
490 CLARK DR
ORWIGSBURG, PA 17961
Phone 5704490247
Manager: GREGORY J SOLGA
490 CLARK DR
ORWIGSBURG, PA 17961
Phone 5704490247

Additional Remarks

FOR CD CTC READING ATCT AT 610-478-9562; WHEN CLSD CTC HARRISBURG APCH AT 800-932-0712.

Instrument Procedures

There are no published instrument procedures at 7PA0.

Some nearby airports with instrument procedures:

KZER - Schuylkill County/Joe Zerbey Airport (12 nm W)
KRDG - Reading Regional Airport/Carl A Spaatz Field (18 nm SE)
22N - Jake Arner Memorial Airport (19 nm NE)
9D4 - Deck Airport (20 nm SW)
KHZL - Hazleton Regional Airport (21 nm N)
 
Loc | Ops | Rwys | IFR | FBO | Links
Com | Nav | Svcs | Stats | Notes
Aerial photo
No photo
 
Airport distance calculator
Flying to OPA Heliport? Find the distance to fly.

From to 7PA0

Sunrise and sunset
Times for 12-Jul-2020
 Local
(UTC-4)
 Zulu
(UTC)
Morning civil twilight05:1309:13
Sunrise05:4609:46
Sunset20:3500:35
Evening civil twilight21:0701:07

Current date and time
Zulu (UTC)  12-Jul-2020 19:47:52
Local (UTC-4)  12-Jul-2020 15:47:52
 
METAR
KRDG 
18nm S 
121854Z 20007KT 10SM BKN050 31/18 A2973 RMK AO2 SLP069 T03110178
K22N 
19nm NE 
121924Z AUTO 00000KT 10SM SCT050 SCT060 BKN100 28/18 A2974 RMK AO2
KHZL 
21nm N 
121937Z AUTO 22003KT 10SM OVC100 25/16 A2983 RMK AO2
KMUI 
25nm SW 
121856Z AUTO 00000KT 10SM SCT060 BKN150 29/18 A2974 RMK AO2 SLP071 T02930181
KXLL 
29nm E 
121935Z AUTO 24004KT 10SM SCT060 SCT075 SCT090 29/18 A2975 RMK AO2
KABE 
30nm E 
121851Z 23011G18KT 10SM CLR 30/17 A2974 RMK AO2 SLP068 T03000172
KLNS 
33nm S 
121853Z 19008KT 10SM BKN065 30/17 A2975 RMK AO2 SLP070 T03000172
KSEG 
36nm W 
121903Z AUTO 12005KT 10SM SCT036 BKN060 OVC110 23/19 A2975 RMK AO2 RAE01 P0000 T02280189
KUKT 
36nm E 
121935Z AUTO 21005G11KT 10SM SCT055 SCT065 SCT075 30/18 A2975 RMK A01
KPTW 
36nm SE 
121854Z AUTO 21007KT 8SM FEW060 BKN100 29/17 A2977 RMK AO2 SLP077 T02940167
TAF
KRDG 
18nm S 
121726Z 1218/1318 26008KT P6SM SCT050 BKN120 FM121900 24008KT P6SM VCSH BKN040 FM122100 24006KT P6SM -SHRA VCTS BKN040CB FM130000 VRB03KT P6SM -SHRA BKN040 FM130600 VRB02KT P6SM BKN060 FM131300 30007KT P6SM BKN200
NOTAMs
Click for the latest NOTAMs
NOTAMs are issued by the DoD/FAA and will open in a separate window not controlled by AirNav.

 

 
 

Would you like to see your business listed on this page?

 If your business provides an interesting product or service to pilots, flight crews, aircraft, or users of the OPA Heliport, you should consider listing it here.  To start the listing process, click on the button below
 
Add a business
 

Other Pages about OPA Heliport

Update a link
 
Copyright © AirNav, LLC. All rights reserved. Privacy Policy  Contact